Tiempo atmosférico en la estación meteorológica de Alcalá del Júcar, Albacete (680 m.)



Fecha
DESCASC
Temp. máxima en grados centígrados (hora)
DESCASC
Temp. mínima en grados centígrados (hora)
DESCASC
Temp. media en grados centígrados
DESCASC
Racha de viento máxima en m/sg (hora)
DESCASC
Velocidad máxima media en intervalos de 10 minutos(hora)
DESCASC
Precipitaciones diarias en mm
DESCASC
Precipitaciones de 00:00 a 06:00 en mm
DESCASC
Precipitaciones de 06:00 a 12:00 en mm
DESCASC
Precipitaciones de 12:00 a 18:00 en mm
DESCASC
Precipitaciones de 18:00 a 24:00 en mm
DESCASC
06-07-2020 38.5 (16:30) 18.1 (07:20) 28.3 9.72 (21:00) 6.11 (21:00) 0 0 0 0 0
05-07-2020 37 (16:40) 17.6 (06:30) 27.3 10 (19:40) 5.83 (20:40) 0 0 0 0 0
04-07-2020 35.5 (16:30) 20.7 (00:50) 28.1 10.28 (20:10) 4.72 (20:20) 0 0 0 0 0
03-07-2020 32.2 (15:50) 17.9 (07:00) 25.1 10 (20:00) 4.72 (19:50) 0 0 0 0 0
02-07-2020 35.5 (16:40) 19.3 (00:00) 27.4 12.5 (15:10) 6.11 (17:20) 0 0 0 0 0
01-07-2020 36.3 (16:50) 17.4 (00:00) 26.8 10.83 (18:10) 5.83 (16:20) 0 0 0 0 0
30-06-2020 36.2 (15:40) 17.6 (00:00) 26.9 10.28 (16:30) 6.11 (18:20) 0 0 0 0 0
29-06-2020 38 (17:10) 17.8 (00:00) 27.9 10.83 (20:00) 6.39 (20:10) 0 0 0 0 0
28-06-2020 35.8 (17:20) 16.9 (00:00) 26.3 9.72 (21:10) 5.28 (21:10) 0 0 0 0 0
27-06-2020 32.9 (16:30) 15.8 (00:00) 24.4 10.28 (16:00) 3.89 (17:00) 0 0 0 0 0
26-06-2020 34.5 (17:30) 16.5 (00:00) 25.5 9.17 (18:50) 5 (18:50) 0 0 0 0 0
25-06-2020 35.2 (16:10) 15.8 (00:00) 25.5 10.28 (19:10) 5 (19:10) 0 0 0 0 0
24-06-2020 31.9 (14:00) 16.1 (00:00) 24 7.78 (21:10) 3.61 (18:40) 0 0 0 0 0
23-06-2020 34.6 (16:50) 16.8 (00:00) 25.7 7.78 (20:10) 4.17 (20:30) 0 0 0 0 0
22-06-2020 34.1 (15:30) 17.4 (00:00) 25.7 9.17 (20:10) 5.56 (20:10) 0 0 0 0 0
21-06-2020 35.4 (16:30) 16 (00:00) 25.7 8.61 (18:20) 4.72 (18:20) 0 0 0 0 0
20-06-2020 33 (17:00) 14.8 (00:00) 23.9 7.5 (14:20) 3.89 (15:20) 0 0 0 0 0
19-06-2020 30.4 (17:00) 17.3 (00:00) 23.8 11.11 (20:40) 5.83 (20:40) 0 0 0 0 0
18-06-2020 30.2 (17:30) 13 (00:00) 21.6 8.61 (19:30) 4.72 (20:30) 1 0 0 0 1
17-06-2020 27.6 (15:30) 13.1 (00:00) 20.4 11.94 (14:00) 5 (15:40) 0 0 0 0 0
16-06-2020 27.4 (16:00) 16.8 (00:00) 22.1 11.39 (15:00) 5.83 (16:00) 0 0 0 0 0
15-06-2020 29.3 (17:00) 13.8 (00:00) 21.5 8.06 (14:50) 4.72 (16:50) 0 0 0 0 0
14-06-2020 27.5 (17:10) 12.4 (00:00) 19.9 11.67 (18:20) 5 (17:10) 0 0 0 0 0
13-06-2020 24.5 (17:20) 10.7 (00:00) 17.6 10 (12:50) 5.56 (13:00) 0 0 0 0 0
12-06-2020 23.1 (17:40) 13.7 (00:00) 18.4 12.78 (15:10) 7.5 (12:20) 0 0 0 0 0
11-06-2020 27.2 (17:00) 12 (00:00) 19.6 12.5 (14:30) 7.22 (21:20) 0 0 0 0 0

Gráficas

Temp. máximas Temp. mínimas Temp. medias Precipitaciones Rachas de viento máximas Velocidades máximas media en intervalos de 10 minutos

Datos horarios

Fecha y hora oficial Temperatura (ºC) Velocidad del viento (km/h) Dirección del viento Racha (km/h) Dirección de racha Precipitación (mm) Presión (hPa) Tendencia (hPa) Humedad (%)
2020-07-10 23:00:00 23.5 8 Nordeste 19 Nordeste 0 -- -- 51
2020-07-10 22:00:00 25.4 8 Nordeste 21 Sudeste 0 -- -- 45
2020-07-10 21:00:00 27 10 Este 27 Este 0 -- -- 41
2020-07-10 20:00:00 28.8 13 Este 27 Sudeste 0 -- -- 40
2020-07-10 19:00:00 30.8 10 Este 27 Este 0 -- -- 35
2020-07-10 18:00:00 31.1 10 Este 22 Este 0 -- -- 34
2020-07-10 17:00:00 31.8 12 Este 27 Sudeste 0 -- -- 33
2020-07-10 16:00:00 33.8 11 Sudeste 31 Sudeste 0 -- -- 33
2020-07-10 15:00:00 33.7 10 Este 26 Sudeste 0 -- -- 33
2020-07-10 14:00:00 31.9 10 Sudeste 24 Sudeste 0 -- -- 35
2020-07-10 13:00:00 30.3 9 Sudeste 21 Sudeste 0 -- -- 39
2020-07-10 12:00:00 28.8 11 Sudeste 24 Sudeste 0 -- -- 44
2020-07-10 11:00:00 26.1 8 Este 25 Sudeste 0 -- -- 53
2020-07-10 10:00:00 23.5 6 Este 17 Sudeste 0 -- -- 60
2020-07-10 09:00:00 20.4 6 Nordeste 14 Nordeste 0 -- -- 68
2020-07-10 08:00:00 17.7 2 Nordeste 19 Nordeste 0 -- -- 78
2020-07-10 07:00:00 17.2 0 Calma 9 Nordeste 0 -- -- 77
2020-07-10 06:00:00 18 3 Nordeste 9 Nordeste 0 -- -- 78
2020-07-10 05:00:00 18 5 Norte 8 Norte 0 -- -- 71
2020-07-10 04:00:00 18.4 3 Sudeste 10 Norte 0 -- -- 69
2020-07-10 03:00:00 19.3 6 Nordeste 12 Nordeste 0 -- -- 68
2020-07-10 02:00:00 20 9 Nordeste 17 Nordeste 0 -- -- 69
2020-07-10 01:00:00 21.9 8 Este 23 Este 0 -- -- 63
2020-07-10 00:00:00 22.3 5 Nordeste 19 Este 0 -- -- 49
2020-07-09 23:00:00 22.1 8 Este 28 Este 0 -- -- 50
2020-07-09 22:00:00 22.5 16 Nordeste 29 Norte 0 -- -- 52
2020-07-09 21:00:00 25.4 14 Nordeste 33 Norte 0 -- -- 41
2020-07-09 20:00:00 27.5 10 Este 30 Sudeste 0 -- -- 34
2020-07-09 19:00:00 28.9 15 Este 38 Sudeste 0 -- -- 34
2020-07-09 18:00:00 31.2 14 Este 44 Sudeste 0 -- -- 32
2020-07-09 17:00:00 32.9 18 Sudeste 36 Sudeste 0 -- -- 31
2020-07-09 16:00:00 33.9 13 Sudeste 37 Sudeste 0 -- -- 30
2020-07-09 15:00:00 33.5 15 Sudeste 32 Sudeste 0 -- -- 34
2020-07-09 14:00:00 32.9 13 Este 26 Nordeste 0 -- -- 32
2020-07-09 13:00:00 30.6 9 Nordeste 22 Norte 0 -- -- 37
2020-07-09 12:00:00 28.8 5 Este 15 Sudeste 0 -- -- 41
2020-07-09 11:00:00 26.5 9 Sudeste 17 Sur 0 -- -- 51
2020-07-09 10:00:00 23.1 5 Este 13 Nordeste 0 -- -- 67
2020-07-09 09:00:00 20.8 5 Este 14 Nordeste 0 -- -- 74
2020-07-09 08:00:00 19.3 4 Este 14 Este 0 -- -- 77
2020-07-09 07:00:00 19.1 3 Este 10 Nordeste 0 -- -- 77
2020-07-09 06:00:00 19.2 3 Nordeste 10 Nordeste 0 -- -- 77
2020-07-09 05:00:00 19.4 0 Calma 11 Norte 0 -- -- 76
2020-07-09 04:00:00 20 8 Norte 12 Norte 0 -- -- 74
2020-07-09 03:00:00 20.6 8 Nordeste 21 Nordeste 0 -- -- 72
2020-07-09 02:00:00 21.6 6 Nordeste 21 Norte 0 -- -- 67
2020-07-09 01:00:00 22.9 9 Este 24 Sudeste 0 -- -- 62
2020-07-09 00:00:00 22.6 10 Este 33 Sudeste 0 -- -- 67
2020-07-08 23:00:00 23.7 17 Sudeste 35 Sudeste 0 -- -- 66
2020-07-08 22:00:00 24.8 6 Este 24 Sudeste 0 -- -- 64
2020-07-08 21:00:00 25.9 8 Nordeste 28 Sudeste 0 -- -- 58
2020-07-08 20:00:00 26.2 11 Nordeste 37 Nordeste 0 -- -- 61
2020-07-08 19:00:00 28.9 13 Este 40 Sudeste 0 -- -- 37
2020-07-08 18:00:00 29.5 26 Sudeste 49 Sudeste 0 -- -- 31
2020-07-08 17:00:00 30.8 20 Sudoeste 35 Oeste 0 -- -- 36
2020-07-08 16:00:00 34.2 9 Este 26 Sudeste 0 -- -- 35
2020-07-08 15:00:00 34.8 10 Este 26 Este 0 -- -- 30
2020-07-08 14:00:00 32.9 14 Sudeste 36 Este 0 -- -- 36
2020-07-08 13:00:00 29.6 12 Este 26 Nordeste 0 -- -- 39
2020-07-08 12:00:00 27.9 10 Nordeste 23 Norte 0 -- -- 47
2020-07-08 11:00:00 26.1 7 Este 24 Nordeste 0 -- -- 54
2020-07-08 10:00:00 23.6 8 Este 19 Sudeste 0 -- -- 63
2020-07-08 09:00:00 21.4 7 Este 18 Nordeste 0 -- -- 73
2020-07-08 08:00:00 19.4 7 Nordeste 23 Nordeste 0 -- -- 79
2020-07-08 07:00:00 18.8 11 Nordeste 20 Este 0 -- -- 75
2020-07-08 06:00:00 18.9 12 Nordeste 21 Este 0 -- -- 71
2020-07-08 05:00:00 19.8 6 Nordeste 17 Este 0 -- -- 73
2020-07-08 04:00:00 20 7 Este 18 Nordeste 0 -- -- 75
2020-07-08 03:00:00 20.2 10 Nordeste 19 Nordeste 0 -- -- 71
2020-07-08 02:00:00 21 9 Nordeste 23 Nordeste 0 -- -- 66
2020-07-08 01:00:00 22.1 8 Nordeste 23 Nordeste 0 -- -- 62
2020-07-08 00:00:00 22.7 12 Nordeste 26 Nordeste 0 -- -- 63
2020-07-07 23:00:00 23.4 10 Nordeste 28 Nordeste 0 -- -- 61
2020-07-07 22:00:00 25.2 10 Nordeste 36 Nordeste 0 -- -- 58
2020-07-07 21:00:00 28.3 19 Nordeste 36 Nordeste 0 -- -- 53
2020-07-07 20:00:00 35.4 9 Nordeste 24 Oeste 0 -- -- 32
2020-07-07 19:00:00 37.1 14 Oeste 36 Noroeste 0 -- -- 21
2020-07-07 18:00:00 37.6 10 Oeste 26 Noroeste 0 -- -- 22
2020-07-07 17:00:00 38.2 13 Oeste 29 Noroeste 0 -- -- 21
2020-07-07 16:00:00 38 13 Noroeste 34 Oeste 0 -- -- 21
2020-07-07 15:00:00 37.1 6 Oeste 24 Oeste 0 -- -- 25
2020-07-07 14:00:00 35.5 7 Sudoeste 15 Sudoeste 0 -- -- 26
2020-07-07 13:00:00 33.8 4 Norte 14 Noroeste 0 -- -- 27
2020-07-07 12:00:00 31.6 6 Oeste 17 Noroeste 0 -- -- 30
2020-07-07 11:00:00 29.7 2 Este 9 Sudeste 0 -- -- 33
2020-07-07 10:00:00 26.1 4 Este 9 Sudeste 0 -- -- 40
2020-07-07 09:00:00 22.4 3 Este 11 Este 0 -- -- 51
2020-07-07 08:00:00 19.8 0 Calma 5 Este 0 -- -- 59
2020-07-07 07:00:00 19.6 3 Sudoeste 6 Este 0 -- -- 57
2020-07-07 06:00:00 20.2 2 Este 5 Este 0 -- -- 53
2020-07-07 05:00:00 21 3 Este 9 Este 0 -- -- 51
2020-07-07 04:00:00 21.4 3 Este 14 Este 0 -- -- 50
2020-07-07 03:00:00 22.1 4 Este 17 Nordeste 0 -- -- 49
2020-07-07 02:00:00 22.6 11 Nordeste 22 Nordeste 0 -- -- 48
2020-07-07 01:00:00 24.2 7 Nordeste 17 Este 0 -- -- 44
2020-07-07 00:00:00 25.6 7 Este 18 Este 0 -- -- 40
2020-07-06 23:00:00 26.5 7 Nordeste 23 Nordeste 0 -- -- 40
2020-07-06 22:00:00 29.7 10 Nordeste 35 Sudeste 0 -- -- 34
2020-07-06 21:00:00 32.5 22 Sudeste 35 Sur 0 -- -- 29
2020-07-06 20:00:00 35.5 9 Oeste 20 Sudoeste 0 -- -- 20
2020-07-06 19:00:00 36.2 10 Oeste 22 Oeste 0 -- -- 21
2020-07-06 18:00:00 36.6 6 Sudoeste 20 Noroeste 0 -- -- 21
2020-07-06 17:00:00 38 8 Noroeste 23 Noroeste 0 -- -- 21
2020-07-06 16:00:00 37.9 8 Norte 23 Norte 0 -- -- 19
2020-07-06 15:00:00 37.1 6 Norte 15 Norte 0 -- -- 21
2020-07-06 14:00:00 35.2 5 Sudeste 17 Nordeste 0 -- -- 26
2020-07-06 13:00:00 33.2 8 Nordeste 17 Nordeste 0 -- -- 30
2020-07-06 12:00:00 31.2 6 Sudeste 14 Este 0 -- -- 35
2020-07-06 11:00:00 28.1 4 Nordeste 10 Sudeste 0 -- -- 41
2020-07-06 10:00:00 24.8 2 Este 6 Nordeste 0 -- -- 46
2020-07-06 09:00:00 20.8 3 Sudoeste 6 Sudoeste 0 -- -- 54
2020-07-06 08:00:00 18.3 0 Calma 5 Este 0 -- -- 60
2020-07-06 07:00:00 18.2 2 Este 8 Norte 0 -- -- 56
2020-07-06 06:00:00 18.8 4 Norte 6 Norte 0 -- -- 55
2020-07-06 05:00:00 19.6 0 Calma 12 Nordeste 0 -- -- 54
2020-07-06 04:00:00 20 8 Nordeste 18 Este 0 -- -- 53
2020-07-06 03:00:00 20.3 5 Nordeste 16 Nordeste 0 -- -- 52
2020-07-06 02:00:00 21 9 Nordeste 15 Este 0 -- -- 50
2020-07-06 01:00:00 22 8 Nordeste 22 Nordeste 0 -- -- 48
2020-07-06 00:00:00 23.1 11 Nordeste 21 Nordeste 0 -- -- 45
2020-07-05 23:00:00 24.7 11 Nordeste 26 Nordeste 0 -- -- 42
2020-07-05 22:00:00 28 11 Nordeste 33 Sudoeste 0 -- -- 37
2020-07-05 21:00:00 30.5 14 Sur 35 Sur 0 -- -- 36
2020-07-05 20:00:00 32.3 17 Sudeste 36 Sudeste 0 -- -- 34
2020-07-05 19:00:00 34.4 6 Sudeste 17 Noroeste 0 -- -- 32
2020-07-05 18:00:00 35.3 5 Nordeste 16 Oeste 0 -- -- 22
2020-07-05 17:00:00 36.6 9 Noroeste 23 Norte 0 -- -- 22
2020-07-05 16:00:00 35.6 10 Oeste 22 Nordeste 0 -- -- 23
2020-07-05 15:00:00 35.4 9 Norte 19 Oeste 0 -- -- 21
2020-07-05 14:00:00 33.8 5 Norte 14 Sudoeste 0 -- -- 33
2020-07-05 13:00:00 31.6 6 Sudoeste 12 Sudoeste 0 -- -- 38
2020-07-05 12:00:00 29.6 5 Sur 11 Sudoeste 0 -- -- 45
2020-07-05 11:00:00 26.7 4 Sudoeste 8 Sudoeste 0 -- -- 55
2020-07-05 10:00:00 23.7 4 Nordeste 10 Nordeste 0 -- -- 66
2020-07-05 09:00:00 20.6 5 Este 11 Nordeste 0 -- -- 81
2020-07-05 08:00:00 18.5 3 Este 9 Este 0 -- -- 87
2020-07-05 07:00:00 18 4 Este 14 Este 0 -- -- 88
2020-07-05 06:00:00 17.9 10 Nordeste 16 Nordeste 0 -- -- 87
2020-07-05 05:00:00 18.5 10 Nordeste 17 Nordeste 0 -- -- 86
2020-07-05 04:00:00 19 8 Nordeste 14 Nordeste 0 -- -- 84
2020-07-05 03:00:00 19.7 5 Nordeste 10 Este 0 -- -- 81
2020-07-05 02:00:00 20.5 4 Este 19 Este 0 -- -- 80
2020-07-05 01:00:00 20.9 8 Nordeste 21 Este 0 -- -- 79
2020-07-05 00:00:00 21.6 10 Nordeste 27 Este 0 -- -- 76
2020-07-04 23:00:00 22.5 11 Nordeste 29 Nordeste 0 -- -- 73
2020-07-04 22:00:00 24.8 11 Nordeste 25 Nordeste 0 -- -- 65
2020-07-04 21:00:00 29.4 16 Sudeste 37 Sudeste 0 -- -- 47
2020-07-04 20:00:00 32.5 3 Sur 17 Sudeste 0 -- -- 31
2020-07-04 19:00:00 33.1 8 Sudoeste 17 Noroeste 0 -- -- 21
2020-07-04 18:00:00 34.3 7 Nordeste 18 Noroeste 0 -- -- 21
2020-07-04 17:00:00 35.2 7 Nordeste 20 Noroeste 0 -- -- 21
2020-07-04 16:00:00 35.1 4 Nordeste 20 Norte 0 -- -- 21
2020-07-04 15:00:00 33.9 6 Sudoeste 23 Noroeste 0 -- -- 24
2020-07-04 14:00:00 32.8 5 Sur 12 Norte 0 -- -- 30
2020-07-04 13:00:00 30.9 6 Sur 14 Nordeste 0 -- -- 37
2020-07-04 12:00:00 28.4 5 Sudeste 11 Sur 0 -- -- 45
2020-07-04 11:00:00 26.4 4 Sur 14 Sudoeste 0 -- -- 54
2020-07-04 10:00:00 23.9 4 Sur 10 Sudeste 0 -- -- 65
2020-07-04 09:00:00 21.8 4 Sudoeste 7 Sudoeste 0 -- -- 73
2020-07-04 08:00:00 20.9 4 Sudoeste 6 Sur 0 -- -- 75
2020-07-04 07:00:00 21.5 4 Sur 11 Sur 0 -- -- 74
2020-07-04 06:00:00 21.4 5 Sur 11 Sur 0 -- -- 76
2020-07-04 05:00:00 21.4 6 Sudeste 16 Sudeste 0 -- -- 78
2020-07-04 04:00:00 21.4 6 Este 14 Este 0 -- -- 78
2020-07-04 03:00:00 21 4 Este 13 Sudeste 0 -- -- 80
2020-07-04 02:00:00 21 6 Este 14 Sudeste 0 -- -- 80
2020-07-04 01:00:00 20.8 5 Este 18 Este 0 -- -- 80
2020-07-04 00:00:00 21.6 10 Nordeste 16 Este 0 -- -- 76
2020-07-03 23:00:00 23.7 5 Sudeste 21 Sudeste 0 -- -- 67
2020-07-03 22:00:00 24.8 10 Sur 21 Sur 0 -- -- 63
2020-07-03 21:00:00 26.1 17 Sur 28 Sur 0 -- -- 58
2020-07-03 20:00:00 27.8 17 Sur 36 Sudeste 0 -- -- 52
2020-07-03 19:00:00 29.5 10 Este 28 Sudeste 0 -- -- 46
2020-07-03 18:00:00 30.8 10 Sudeste 24 Sudeste 0 -- -- 43
2020-07-03 17:00:00 32.2 10 Sudeste 21 Este 0 -- -- 38
2020-07-03 16:00:00 32.2 9 Este 20 Sudeste 0 -- -- 37
2020-07-03 15:00:00 30.7 8 Este 23 Nordeste 0 -- -- 39
2020-07-03 14:00:00 30.2 10 Este 22 Sudeste 0 -- -- 42
2020-07-03 13:00:00 29.5 10 Este 28 Sudeste 0 -- -- 44
2020-07-03 12:00:00 27.9 9 Sudeste 21 Sudeste 0 -- -- 49
2020-07-03 11:00:00 26.1 10 Este 23 Sudeste 0 -- -- 57
2020-07-03 10:00:00 23.6 8 Este 19 Sudeste 0 -- -- 69
2020-07-03 09:00:00 21.2 6 Este 14 Sudeste 0 -- -- 77
2020-07-03 08:00:00 19.1 3 Nordeste 10 Este 0 -- -- 82
2020-07-03 07:00:00 17.9 4 Nordeste 12 Nordeste 0 -- -- 81
2020-07-03 06:00:00 18.5 4 Este 11 Este 0 -- -- 80
2020-07-03 05:00:00 18.8 6 Este 13 Este 0 -- -- 79
2020-07-03 04:00:00 19 5 Nordeste 13 Este 0 -- -- 78
2020-07-03 03:00:00 19.6 4 Este 14 Nordeste 0 -- -- 78
2020-07-03 02:00:00 20.1 8 Nordeste 15 Este 0 -- -- 76
2020-07-03 01:00:00 21.6 4 Este 15 Nordeste 0 -- -- 69
2020-07-03 00:00:00 23.9 6 Nordeste 10 Nordeste 0 -- -- 49
2020-07-02 23:00:00 26.5 5 Oeste 11 Oeste 0 -- -- 23
2020-07-02 22:00:00 28.4 5 Oeste 25 Noroeste 0 -- -- 21
2020-07-02 21:00:00 30.9 15 Noroeste 31 Noroeste 0 -- -- 18
2020-07-02 20:00:00 32.5 19 Noroeste 36 Oeste 0 -- -- 18
2020-07-02 19:00:00 33.9 18 Noroeste 39 Noroeste 0 -- -- 17
2020-07-02 18:00:00 34.6 17 Oeste 40 Noroeste 0 -- -- 17
2020-07-02 17:00:00 35.4 15 Oeste 40 Sudoeste 0 -- -- 19
2020-07-02 16:00:00 35.3 18 Noroeste 45 Sudoeste 0 -- -- 21
2020-07-02 15:00:00 34.3 18 Oeste 33 Noroeste 0 -- -- 23
2020-07-02 14:00:00 33.8 15 Oeste 39 Oeste 0 -- -- 22
2020-07-02 13:00:00 33.1 11 Oeste 33 Noroeste 0 -- -- 26
2020-07-02 12:00:00 30.9 5 Sudoeste 17 Oeste 0 -- -- 32
2020-07-02 11:00:00 28.2 5 Sudoeste 15 Oeste 0 -- -- 34
2020-07-02 10:00:00 25.2 6 Oeste 15 Oeste 0 -- -- 38
2020-07-02 09:00:00 22.3 4 Oeste 8 Oeste 0 -- -- 40
2020-07-02 08:00:00 19.6 3 Oeste 6 Oeste 0 -- -- 43
2020-07-02 07:00:00 19.5 4 Oeste 7 Oeste 0 -- -- 41
2020-07-02 06:00:00 20.3 3 Oeste 5 Noroeste 0 -- -- 38
2020-07-02 05:00:00 21.2 0 Calma 5 Oeste 0 -- -- 36
2020-07-02 04:00:00 22.6 3 Sudoeste 7 Oeste 0 -- -- 33
2020-07-02 03:00:00 24.1 3 Sudoeste 13 Oeste 0 -- -- 30
2020-07-02 02:00:00 25.2 6 Sudoeste 14 Oeste 0 -- -- 28
2020-07-02 01:00:00 26.2 5 Sudoeste 18 Oeste 0 -- -- 26
2020-07-02 00:00:00 27.4 9 Oeste 16 Oeste 0 -- -- 27
2020-07-01 23:00:00 29 8 Oeste 14 Oeste 0 -- -- 26
2020-07-01 22:00:00 30.2 6 Noroeste 13 Noroeste 0 -- -- 24
2020-07-01 21:00:00 33 10 Noroeste 24 Noroeste 0 -- -- 21
2020-07-01 20:00:00 34.4 10 Oeste 30 Oeste 0 -- -- 20
2020-07-01 19:00:00 35 12 Oeste 39 Noroeste 0 -- -- 21
2020-07-01 18:00:00 35.7 13 Noroeste 28 Oeste 0 -- -- 21
2020-07-01 17:00:00 36.2 14 Oeste 38 Oeste 0 -- -- 21
2020-07-01 16:00:00 35.8 16 Oeste 33 Oeste 0 -- -- 21
2020-07-01 15:00:00 35.4 15 Oeste 38 Oeste 0 -- -- 20
2020-07-01 14:00:00 34.3 18 Oeste 36 Sudoeste 0 -- -- 25
2020-07-01 13:00:00 33.2 15 Noroeste 31 Noroeste 0 -- -- 28
2020-07-01 12:00:00 31 18 Noroeste 33 Noroeste 0 -- -- 31
2020-07-01 11:00:00 27.5 13 Oeste 25 Oeste 0 -- -- 46
2020-07-01 10:00:00 23.8 8 Oeste 16 Sudoeste 0 -- -- 59
2020-07-01 09:00:00 20.2 4 Sudoeste 7 Sudoeste 0 -- -- 75
2020-07-01 08:00:00 17.8 0 Calma 4 Sudoeste 0 -- -- 87
2020-07-01 07:00:00 17.4 0 Calma 4 Sudoeste 0 -- -- 87
2020-07-01 06:00:00 17.6 4 Nordeste 10 Nordeste 0 -- -- 88
2020-07-01 05:00:00 18.6 0 Calma 6 Sudeste 0 -- -- 86
2020-07-01 04:00:00 19.2 3 Este 11 Norte 0 -- -- 85
2020-07-01 03:00:00 19.7 6 Nordeste 15 Nordeste 0 -- -- 83
2020-07-01 02:00:00 20.4 9 Nordeste 17 Este 0 -- -- 81
2020-07-01 01:00:00 21.4 8 Nordeste 19 Nordeste 0 -- -- 78
2020-07-01 00:00:00 22.7 10 Nordeste 19 Este 0 -- -- 73
2020-06-30 23:00:00 24.2 10 Nordeste 23 Nordeste 0 -- -- 67
2020-06-30 22:00:00 27 6 Nordeste 23 Este 0 -- -- 54
2020-06-30 21:00:00 30.9 12 Sudeste 24 Sur 0 -- -- 24
2020-06-30 20:00:00 32.4 14 Sudeste 32 Sur 0 -- -- 24
2020-06-30 19:00:00 33.6 20 Sur 36 Sudeste 0 -- -- 23
2020-06-30 18:00:00 34.4 18 Sur 37 Sur 0 -- -- 23
2020-06-30 17:00:00 35.4 21 Sur 37 Sur 0 -- -- 23
2020-06-30 16:00:00 35.7 19 Sur 35 Sudoeste 0 -- -- 23
2020-06-30 15:00:00 35.7 13 Sur 33 Sudeste 0 -- -- 23
2020-06-30 14:00:00 34.6 15 Sur 30 Sudeste 0 -- -- 24
2020-06-30 13:00:00 33.3 12 Sur 30 Sur 0 -- -- 29
2020-06-30 12:00:00 31.2 9 Sur 18 Sudeste 0 -- -- 31
2020-06-30 11:00:00 27.5 7 Este 19 Este 0 -- -- 50
2020-06-30 10:00:00 24 8 Este 17 Nordeste 0 -- -- 63
2020-06-30 09:00:00 20.3 7 Este 21 Nordeste 0 -- -- 82
2020-06-30 08:00:00 18.4 9 Nordeste 21 Este 0 -- -- 88
2020-06-30 07:00:00 17.6 10 Nordeste 21 Nordeste 0 -- -- 89
2020-06-30 06:00:00 18.1 9 Este 19 Nordeste 0 -- -- 88
2020-06-30 05:00:00 18.6 9 Este 21 Nordeste 0 -- -- 86
2020-06-30 04:00:00 19.1 8 Este 21 Nordeste 0 -- -- 84
2020-06-30 03:00:00 19.7 12 Nordeste 24 Nordeste 0 -- -- 83
2020-06-30 02:00:00 20.3 12 Nordeste 23 Nordeste 0 -- -- 82
2020-06-30 01:00:00 21.2 9 Nordeste 24 Nordeste 0 -- -- 79
2020-06-30 00:00:00 22.5 13 Nordeste 23 Nordeste 0 -- -- 73
2020-06-29 23:00:00 24.9 11 Nordeste 22 Nordeste 0 -- -- 58
2020-06-29 22:00:00 29.2 6 Este 30 Sur 0 -- -- 36
2020-06-29 21:00:00 31.3 17 Sur 39 Sur 0 -- -- 29
2020-06-29 20:00:00 33.6 22 Sur 39 Sur 0 -- -- 27
2020-06-29 19:00:00 35.1 13 Este 28 Sudeste 0 -- -- 26
2020-06-29 18:00:00 36.7 8 Oeste 22 Noroeste 0 -- -- 22
2020-06-29 17:00:00 37.6 8 Oeste 20 Oeste 0 -- -- 22
2020-06-29 16:00:00 37.5 11 Noroeste 23 Oeste 0 -- -- 22
2020-06-29 15:00:00 36.6 8 Noroeste 23 Oeste 0 -- -- 23
2020-06-29 14:00:00 35.9 5 Noroeste 17 Noroeste 0 -- -- 25
2020-06-29 13:00:00 33.8 5 Sur 11 Sur 0 -- -- 28
2020-06-29 12:00:00 31.3 5 Sur 12 Sur 0 -- -- 31
2020-06-29 11:00:00 28.6 5 Sur 10 Este 0 -- -- 34
2020-06-29 10:00:00 25.1 3 Este 10 Este 0 -- -- 49
2020-06-29 09:00:00 21.2 5 Nordeste 11 Nordeste 0 -- -- 67
2020-06-29 08:00:00 18.6 4 Nordeste 9 Este 0 -- -- 78
2020-06-29 07:00:00 17.9 2 Este 8 Nordeste 0 -- -- 80
2020-06-29 06:00:00 18 3 Este 13 Nordeste 0 -- -- 79
2020-06-29 05:00:00 18.5 8 Nordeste 19 Nordeste 0 -- -- 79
2020-06-29 04:00:00 19 9 Nordeste 17 Nordeste 0 -- -- 79
2020-06-29 03:00:00 19.8 8 Nordeste 19 Nordeste 0 -- -- 76
2020-06-29 02:00:00 20.9 8 Nordeste 16 Este 0 -- -- 69
2020-06-29 01:00:00 22 11 Nordeste 23 Nordeste 0 -- -- 65
2020-06-29 00:00:00 24 12 Nordeste 22 Nordeste 0 -- -- 59
2020-06-28 23:00:00 27.5 5 Sudeste 23 Sur 0 -- -- 34
2020-06-28 22:00:00 28.8 12 Sur 35 Sudeste 0 -- -- 32
2020-06-28 21:00:00 30.2 17 Sudeste 31 Sudeste 0 -- -- 34
2020-06-28 20:00:00 32.5 13 Sudeste 30 Sudeste 0 -- -- 39
2020-06-28 19:00:00 34.1 6 Norte 26 Noroeste 0 -- -- 25
2020-06-28 18:00:00 34.8 7 Oeste 26 Noroeste 0 -- -- 25
2020-06-28 17:00:00 35.4 11 Noroeste 25 Oeste 0 -- -- 25
2020-06-28 16:00:00 35.1 14 Noroeste 30 Noroeste 0 -- -- 24
2020-06-28 15:00:00 34.7 9 Noroeste 21 Oeste 0 -- -- 25
2020-06-28 14:00:00 33.4 9 Noroeste 21 Noroeste 0 -- -- 27
2020-06-28 13:00:00 32.2 3 Oeste 11 Sur 0 -- -- 32
2020-06-28 12:00:00 29 5 Sudoeste 9 Sudoeste 0 -- -- 36
2020-06-28 11:00:00 26.8 4 Sudoeste 8 Oeste 0 -- -- 42
2020-06-28 10:00:00 23.7 4 Sudoeste 8 Sudoeste 0 -- -- 53
2020-06-28 09:00:00 19.8 4 Sudeste 5 Sudeste 0 -- -- 65
2020-06-28 08:00:00 17.4 0 Calma 8 Nordeste 0 -- -- 71
2020-06-28 07:00:00 16.9 3 Este 10 Este 0 -- -- 71
2020-06-28 06:00:00 17.5 2 Este 14 Este 0 -- -- 69
2020-06-28 05:00:00 17.9 8 Nordeste 15 Nordeste 0 -- -- 70
2020-06-28 04:00:00 19 7 Nordeste 15 Este -- -- -- 67
2020-06-28 03:00:00 19.1 10 Nordeste 18 Nordeste 0 -- -- 67
2020-06-28 02:00:00 20.4 9 Nordeste 20 Nordeste 0 -- -- 65
2020-06-28 01:00:00 21.4 7 Nordeste 18 Nordeste 0 -- -- 63
2020-06-28 00:00:00 22.4 10 Nordeste 21 Nordeste 0 -- -- 61
2020-06-27 23:00:00 24.3 8 Nordeste 21 Nordeste 0 -- -- 52
2020-06-27 22:00:00 28.3 3 Norte 8 Noroeste 0 -- -- 30
2020-06-27 21:00:00 30.2 5 Oeste 17 Noroeste 0 -- -- 27
2020-06-27 20:00:00 31.2 7 Noroeste 26 Noroeste 0 -- -- 25
2020-06-27 19:00:00 32 10 Noroeste 24 Noroeste 0 -- -- 24
2020-06-27 18:00:00 32.3 11 Oeste 26 Oeste 0 -- -- 24
2020-06-27 17:00:00 32.5 14 Oeste 30 Oeste 0 -- -- 23
2020-06-27 16:00:00 32.8 10 Oeste 37 Sudoeste 0 -- -- 22
2020-06-27 15:00:00 31.4 12 Oeste 27 Noroeste 0 -- -- 24
2020-06-27 14:00:00 30.4 12 Oeste 28 Oeste 0 -- -- 25
2020-06-27 13:00:00 28.6 12 Oeste 28 Norte 0 -- -- 29
2020-06-27 12:00:00 26.6 8 Sudoeste 19 Oeste 0 -- -- 34
2020-06-27 11:00:00 24.2 12 Oeste 22 Oeste 0 -- -- 36
2020-06-27 10:00:00 21.4 8 Oeste 15 Oeste 0 -- -- 41
2020-06-27 09:00:00 19.4 7 Oeste 14 Oeste 0 -- -- 48
2020-06-27 08:00:00 16.5 6 Oeste 10 Oeste 0 -- -- 58
2020-06-27 07:00:00 16 9 Oeste 14 Oeste 0 -- -- 60
2020-06-27 06:00:00 16.1 5 Oeste 9 Sudoeste 0 -- -- 71
2020-06-27 05:00:00 17 5 Oeste 9 Oeste 0 -- -- 75
2020-06-27 04:00:00 18.1 0 Calma 3 Sur 0 -- -- 71
2020-06-27 03:00:00 18.8 0 Calma 11 Nordeste 0 -- -- 69
2020-06-27 02:00:00 19.7 7 Nordeste 13 Norte 0 -- -- 66
2020-06-27 01:00:00 20.8 7 Norte 16 Nordeste 0 -- -- 64
2020-06-27 00:00:00 22 6 Nordeste 20 Nordeste 0 -- -- 60
2020-06-26 23:00:00 23.6 8 Nordeste 18 Este 0 -- -- 54
2020-06-26 22:00:00 26.7 7 Este 24 Sur 0 -- -- 42
2020-06-26 21:00:00 28 16 Sudeste 30 Sudeste 0 -- -- 41
2020-06-26 20:00:00 28.7 12 Este 28 Sudeste 0 -- -- 42
2020-06-26 19:00:00 30.5 16 Sudeste 33 Sudeste 0 -- -- 38
2020-06-26 18:00:00 32 12 Este 30 Sudeste 0 -- -- 33
2020-06-26 17:00:00 34.4 9 Sudeste 19 Sudeste 0 -- -- 27
2020-06-26 16:00:00 33.4 8 Nordeste 18 Nordeste 0 -- -- 28
2020-06-26 15:00:00 32.9 7 Norte 19 Oeste 0 -- -- 29
2020-06-26 14:00:00 31.8 7 Norte 18 Noroeste 0 -- -- 31
2020-06-26 13:00:00 30.2 5 Este 18 Noroeste 0 -- -- 32
2020-06-26 12:00:00 28.8 6 Nordeste 17 Oeste 0 -- -- 36
2020-06-26 11:00:00 26.5 5 Este 15 Sudeste 0 -- -- 44
2020-06-26 10:00:00 23.5 7 Este 16 Este 0 -- -- 53
2020-06-26 09:00:00 20.3 6 Este 19 Este 0 -- -- 63
2020-06-26 08:00:00 17.5 6 Nordeste 14 Nordeste 0 -- -- 75
2020-06-26 07:00:00 16.5 8 Nordeste 15 Nordeste 0 -- -- 75
2020-06-26 06:00:00 17.2 7 Este 16 Nordeste 0 -- -- 73
2020-06-26 05:00:00 17.5 9 Nordeste 19 Norte 0 -- -- 68
2020-06-26 04:00:00 17.5 7 Este 17 Nordeste 0 -- -- 64
2020-06-26 03:00:00 18.6 6 Nordeste 13 Nordeste 0 -- -- 59
2020-06-26 02:00:00 20.4 3 Este 14 Sudeste 0 -- -- 55
2020-06-26 01:00:00 21.1 5 Este 15 Este 0 -- -- 54
2020-06-26 00:00:00 21.6 8 Nordeste 19 Este 0 -- -- 52
2020-06-25 23:00:00 22.4 9 Nordeste 26 Nordeste 0 -- -- 49
2020-06-25 22:00:00 24.6 8 Nordeste 26 Nordeste 0 -- -- 44
2020-06-25 21:00:00 27.4 15 Sudeste 33 Sudeste 0 -- -- 41
2020-06-25 20:00:00 29.3 15 Sudeste 37 Sudeste 0 -- -- 37
2020-06-25 19:00:00 31.2 15 Sudeste 35 Sudeste 0 -- -- 35
2020-06-25 18:00:00 33.1 17 Sudeste 33 Este 0 -- -- 32
2020-06-25 17:00:00 34.7 13 Sur 26 Sur 0 -- -- 24
2020-06-25 16:00:00 35.1 11 Sur 25 Sudeste 0 -- -- 26
2020-06-25 15:00:00 34.3 8 Este 27 Sudeste 0 -- -- 28
2020-06-25 14:00:00 33.1 9 Este 28 Sudeste 0 -- -- 30
2020-06-25 13:00:00 31.1 6 Este 23 Este 0 -- -- 31
2020-06-25 12:00:00 29 9 Sudeste 19 Nordeste 0 -- -- 33
2020-06-25 11:00:00 26.2 5 Sudeste 13 Este 0 -- -- 44
2020-06-25 10:00:00 22.2 6 Nordeste 13 Este 0 -- -- 56
2020-06-25 09:00:00 18.7 5 Nordeste 10 Nordeste 0 -- -- 76
2020-06-25 08:00:00 16.2 0 Calma 4 Este 0 -- -- 87
2020-06-25 07:00:00 15.8 0 Calma 6 Sudeste 0 -- -- 86
2020-06-25 06:00:00 16 3 Este 14 Nordeste 0 -- -- 86
2020-06-25 05:00:00 16.4 9 Nordeste 18 Nordeste 0 -- -- 85
2020-06-25 04:00:00 16.8 8 Nordeste 14 Norte 0 -- -- 83
2020-06-25 03:00:00 17.9 5 Este 19 Nordeste 0 -- -- 80
2020-06-25 02:00:00 18.9 6 Este 18 Este 0 -- -- 76
2020-06-25 01:00:00 19.6 8 Nordeste 23 Nordeste 0 -- -- 73
2020-06-25 00:00:00 21.1 12 Nordeste 23 Nordeste 0 -- -- 68
2020-06-24 23:00:00 22.1 7 Este 25 Nordeste 0 -- -- 66
2020-06-24 22:00:00 25 5 Sudeste 28 Este 0 -- -- 57
2020-06-24 21:00:00 26.5 6 Nordeste 26 Sudeste 0 -- -- 51
2020-06-24 20:00:00 28.3 5 Este 19 Nordeste 0 -- -- 47
2020-06-24 19:00:00 29.1 6 Nordeste 28 Sudeste 0 -- -- 41
2020-06-24 18:00:00 29.6 8 Este 25 Sudeste 0 -- -- 32
2020-06-24 17:00:00 29.6 10 Norte 24 Noroeste 0 -- -- 28
2020-06-24 16:00:00 30.9 3 Sur 15 Oeste 0 -- -- 27
2020-06-24 15:00:00 31.6 4 Sudeste 18 Noroeste 0 -- -- 27
2020-06-24 14:00:00 31.9 8 Noroeste 15 Sudeste 0 -- -- 26
2020-06-24 13:00:00 30.1 7 Sudoeste 22 Sudeste 0 -- -- 28
2020-06-24 12:00:00 28.5 10 Sudoeste 19 Oeste 0 -- -- 32
2020-06-24 11:00:00 26.2 4 Sudoeste 12 Sudoeste 0 -- -- 41
2020-06-24 10:00:00 23.9 4 Este 15 Nordeste 0 -- -- 54
2020-06-24 09:00:00 19.9 8 Este 20 Sudeste 0 -- -- 69
2020-06-24 08:00:00 17.2 5 Este 22 Nordeste 0 -- -- 75
2020-06-24 07:00:00 16.2 11 Nordeste 19 Nordeste 0 -- -- 81
2020-06-24 06:00:00 16.8 8 Nordeste 14 Nordeste 0 -- -- 80
2020-06-24 05:00:00 17.1 7 Nordeste 16 Nordeste 0 -- -- 79
2020-06-24 04:00:00 17.9 7 Nordeste 15 Este 0 -- -- 75
2020-06-24 03:00:00 18.2 6 Este 13 Este 0 -- -- 75
2020-06-24 02:00:00 18.6 5 Este 21 Este 0 -- -- 73
2020-06-24 01:00:00 19.6 7 Nordeste 26 Nordeste 0 -- -- 69
2020-06-24 00:00:00 20.7 9 Nordeste 21 Nordeste 0 -- -- 65
2020-06-23 23:00:00 22.1 8 Nordeste 21 Nordeste 0 -- -- 62
2020-06-23 22:00:00 24.7 10 Nordeste 26 Sudeste 0 -- -- 55
2020-06-23 21:00:00 29.9 12 Sudeste 28 Sudeste 0 -- -- 33
2020-06-23 20:00:00 31.4 11 Sur 27 Sudeste 0 -- -- 30
2020-06-23 19:00:00 32.6 14 Sur 25 Sur 0 -- -- 28
2020-06-23 18:00:00 33.7 10 Sur 19 Sur 0 -- -- 26
2020-06-23 17:00:00 34.3 11 Sur 23 Sur 0 -- -- 26
2020-06-23 16:00:00 34.1 8 Sur 21 Sur 0 -- -- 27
2020-06-23 15:00:00 33.4 10 Sur 22 Sur 0 -- -- 28
2020-06-23 14:00:00 32.5 9 Sudeste 22 Sudeste 0 -- -- 31
2020-06-23 13:00:00 30.8 10 Sur 24 Sudeste 0 -- -- 31
2020-06-23 12:00:00 29 11 Sur 20 Sudeste 0 -- -- 34
2020-06-23 11:00:00 26.6 8 Sur 16 Sur 0 -- -- 38
2020-06-23 10:00:00 23 6 Nordeste 12 Nordeste 0 -- -- 48
2020-06-23 09:00:00 20.3 4 Este 12 Sudeste 0 -- -- 54
2020-06-23 08:00:00 17.9 5 Este 10 Sudeste 0 -- -- 61
2020-06-23 07:00:00 16.8 3 Este 8 Este 0 -- -- 67
2020-06-23 06:00:00 17.5 4 Este 12 Este 0 -- -- 65
2020-06-23 05:00:00 17.9 5 Este 13 Este 0 -- -- 65
2020-06-23 04:00:00 18.5 6 Nordeste 11 Nordeste 0 -- -- 62
2020-06-23 03:00:00 19.4 6 Este 13 Sudeste 0 -- -- 58
2020-06-23 02:00:00 19.3 6 Este 13 Nordeste 0 -- -- 63
2020-06-23 01:00:00 20.1 8 Nordeste 16 Nordeste 0 -- -- 64
2020-06-23 00:00:00 21.6 8 Nordeste 16 Este 0 -- -- 58
2020-06-22 23:00:00 24.7 6 Sudeste 17 Sudeste 0 -- -- 41
2020-06-22 22:00:00 26.2 7 Sur 27 Sur 0 -- -- 38
2020-06-22 21:00:00 28 14 Sur 33 Sudeste 0 -- -- 34
2020-06-22 20:00:00 30 19 Sur 32 Sudeste 0 -- -- 32
2020-06-22 19:00:00 31.7 12 Sur 24 Sur 0 -- -- 30
2020-06-22 18:00:00 32.7 9 Sur 26 Sur 0 -- -- 28
2020-06-22 17:00:00 33 13 Sur 24 Sur 0 -- -- 28
2020-06-22 16:00:00 34 6 Sur 20 Sudoeste 0 -- -- 27
2020-06-22 15:00:00 33.6 9 Sur 23 Sudoeste 0 -- -- 27
2020-06-22 14:00:00 33 9 Sur 20 Sudoeste 0 -- -- 28
2020-06-22 13:00:00 31.6 5 Sur 27 Sudeste 0 -- -- 30
2020-06-22 12:00:00 30 10 Este 24 Sudeste 0 -- -- 34
2020-06-22 11:00:00 27.9 10 Este 27 Sudeste 0 -- -- 37
2020-06-22 10:00:00 25.3 8 Este 23 Sudeste 0 -- -- 44
2020-06-22 09:00:00 22 5 Este 15 Nordeste 0 -- -- 56
2020-06-22 08:00:00 18.2 5 Nordeste 15 Nordeste 0 -- -- 71
2020-06-22 07:00:00 17.6 6 Nordeste 22 Este 0 -- -- 72
2020-06-22 06:00:00 17.4 10 Nordeste 18 Nordeste 0 -- -- 75
2020-06-22 05:00:00 17.9 11 Nordeste 16 Nordeste 0 -- -- 74
2020-06-22 04:00:00 18.9 7 Nordeste 17 Nordeste 0 -- -- 70
2020-06-22 03:00:00 19.6 4 Nordeste 17 Este 0 -- -- 73
2020-06-22 02:00:00 20.5 7 Nordeste 21 Nordeste 0 -- -- 71
2020-06-22 01:00:00 21.2 8 Nordeste 24 Este 0 -- -- 70
2020-06-22 00:00:00 22.3 9 Nordeste 22 Nordeste 0 -- -- 66
2020-06-21 23:00:00 23.8 12 Nordeste 22 Nordeste 0 -- -- 61
2020-06-21 22:00:00 26.1 12 Nordeste 26 Nordeste 0 -- -- 54
2020-06-21 21:00:00 31 10 Oeste 24 Noroeste 0 -- -- 20
2020-06-21 20:00:00 32.1 14 Oeste 25 Oeste 0 -- -- 20
2020-06-21 19:00:00 32.8 11 Oeste 31 Oeste 0 -- -- 19
2020-06-21 18:00:00 34.2 12 Noroeste 28 Oeste 0 -- -- 18
2020-06-21 17:00:00 35 12 Oeste 25 Noroeste 0 -- -- 18
2020-06-21 16:00:00 35 12 Noroeste 26 Noroeste 0 -- -- 19
2020-06-21 15:00:00 34.1 10 Noroeste 24 Oeste 0 -- -- 20
2020-06-21 14:00:00 32.7 10 Oeste 30 Noroeste 0 -- -- 21
2020-06-21 13:00:00 31 13 Oeste 21 Oeste 0 -- -- 27
2020-06-21 12:00:00 28.4 7 Oeste 20 Sudoeste 0 -- -- 31
2020-06-21 11:00:00 25.8 9 Oeste 16 Sudoeste 0 -- -- 34
2020-06-21 10:00:00 22.7 9 Oeste 15 Oeste 0 -- -- 38
2020-06-21 09:00:00 19.3 6 Oeste 11 Oeste 0 -- -- 47
2020-06-21 08:00:00 16.3 6 Oeste 10 Oeste 0 -- -- 60
2020-06-21 07:00:00 16 3 Oeste 6 Sudoeste 0 -- -- 73
2020-06-21 06:00:00 17.2 0 Calma 3 Sudoeste 0 -- -- 74
2020-06-21 05:00:00 18 0 Calma 4 Nordeste 0 -- -- 74
2020-06-21 04:00:00 18.7 2 Nordeste 9 Nordeste 0 -- -- 73
2020-06-21 03:00:00 19.4 6 Nordeste 13 Nordeste 0 -- -- 71
2020-06-21 02:00:00 21.6 5 Nordeste 16 Nordeste 0 -- -- 54
2020-06-21 01:00:00 23.8 8 Sudoeste 21 Sudoeste 0 -- -- 47
2020-06-21 00:00:00 24.4 5 Sudoeste 18 Sur 0 -- -- 48
2020-06-20 23:00:00 25.6 7 Sudoeste 18 Sudoeste 0 -- -- 43
2020-06-20 22:00:00 27.1 6 Norte 12 Norte 0 -- -- 26
2020-06-20 21:00:00 29.7 7 Noroeste 20 Noroeste 0 -- -- 23
2020-06-20 20:00:00 31 13 Noroeste 24 Noroeste 0 -- -- 21
2020-06-20 19:00:00 31.5 11 Oeste 26 Oeste 0 -- -- 22
2020-06-20 18:00:00 32.4 10 Noroeste 26 Oeste 0 -- -- 21
2020-06-20 17:00:00 33 11 Oeste 27 Noroeste 0 -- -- 22
2020-06-20 16:00:00 32.7 12 Noroeste 26 Oeste 0 -- -- 23
2020-06-20 15:00:00 31.8 12 Noroeste 27 Oeste 0 -- -- 24
2020-06-20 14:00:00 30.7 8 Oeste 21 Oeste 0 -- -- 26
2020-06-20 13:00:00 29 6 Oeste 14 Oeste 0 -- -- 31
2020-06-20 12:00:00 25.9 6 Oeste 17 Oeste 0 -- -- 42
2020-06-20 11:00:00 23.3 8 Oeste 16 Noroeste 0 -- -- 52
2020-06-20 10:00:00 20.2 6 Oeste 12 Oeste 0 -- -- 70
2020-06-20 09:00:00 16.5 2 Sudoeste 5 Sudoeste 0 -- -- 89
2020-06-20 08:00:00 14.9 0 Calma 4 Sur 0 -- -- 91
2020-06-20 07:00:00 15.1 0 Calma 6 Sudeste 0 -- -- 90
2020-06-20 06:00:00 15 3 Este 8 Nordeste 0 -- -- 90
2020-06-20 05:00:00 16 2 Este 11 Este 0 -- -- 89
2020-06-20 04:00:00 16.1 6 Nordeste 12 Nordeste 0 -- -- 87
2020-06-20 03:00:00 16.9 5 Nordeste 12 Este 0 -- -- 85
2020-06-20 02:00:00 17.8 5 Este 15 Nordeste 0 -- -- 83
2020-06-20 01:00:00 18.8 5 Este 13 Nordeste 0 -- -- 80
2020-06-20 00:00:00 19.4 7 Nordeste 20 Nordeste 0 -- -- 79
2020-06-19 23:00:00 21.2 9 Nordeste 21 Sudeste 0 -- -- 72
2020-06-19 22:00:00 22.9 6 Este 32 Sur 0 -- -- 60
2020-06-19 21:00:00 24.9 18 Sur 40 Sudeste 0 -- -- 54
2020-06-19 20:00:00 28.6 7 Oeste 14 Sudoeste 0 -- -- 28
2020-06-19 19:00:00 29.1 5 Sudoeste 20 Noroeste 0 -- -- 29
2020-06-19 18:00:00 29.4 5 Sudoeste 20 Noroeste 0 -- -- 29
2020-06-19 17:00:00 30.4 8 Sudoeste 24 Oeste 0 -- -- 27
2020-06-19 16:00:00 29.9 8 Oeste 28 Oeste 0 -- -- 32
2020-06-19 15:00:00 29.1 10 Noroeste 21 Oeste 0 -- -- 36
2020-06-19 14:00:00 28.1 8 Sur 17 Sudeste 0 -- -- 42
2020-06-19 13:00:00 26 6 Sudeste 14 Sur 0 -- -- 50
2020-06-19 12:00:00 22.7 4 Nordeste 12 Nordeste 0 -- -- 59
2020-06-19 11:00:00 22 7 Nordeste 13 Nordeste 0 -- -- 63
2020-06-19 10:00:00 19.8 4 Este 16 Este 0 -- -- 74
2020-06-19 09:00:00 18.6 5 Este 11 Este 0 -- -- 81
2020-06-19 08:00:00 17.5 4 Este 14 Nordeste 0 -- -- 85
2020-06-19 07:00:00 17.5 5 Nordeste 18 Este 0 -- -- 84
2020-06-19 06:00:00 17.7 5 Este 15 Este 0 -- -- 82
2020-06-19 05:00:00 17.7 7 Este 16 Este 0 -- -- 82
2020-06-19 04:00:00 17.7 8 Este 18 Este 0 -- -- 82
2020-06-19 03:00:00 17.5 8 Este 26 Sudeste 0 -- -- 83
2020-06-19 02:00:00 17.9 12 Este 23 Sudeste 0 -- -- 83
2020-06-19 01:00:00 18.2 10 Sudeste 24 Sudeste 0 -- -- 83
2020-06-19 00:00:00 18.6 7 Este 19 Nordeste 0 -- -- 83
2020-06-18 23:00:00 18.6 11 Nordeste 24 Nordeste 0 -- -- 83
2020-06-18 22:00:00 20.5 8 Nordeste 28 Sudeste 1 -- -- 76
2020-06-18 21:00:00 22.8 12 Este 31 Sudeste 0 -- -- 62
2020-06-18 20:00:00 24.9 13 Sudeste 31 Sudeste 0 -- -- 53
2020-06-18 19:00:00 26.4 12 Sudeste 26 Este 0 -- -- 46
2020-06-18 18:00:00 29 8 Este 21 Oeste 0 -- -- 38
2020-06-18 17:00:00 30.1 8 Oeste 23 Oeste 0 -- -- 24
2020-06-18 16:00:00 29.5 6 Sur 22 Noroeste 0 -- -- 26
2020-06-18 15:00:00 28.3 8 Sudoeste 19 Noroeste 0 -- -- 27
2020-06-18 14:00:00 27.2 9 Oeste 21 Oeste 0 -- -- 31
2020-06-18 13:00:00 26.1 7 Oeste 15 Oeste 0 -- -- 35
2020-06-18 12:00:00 24.6 5 Norte 12 Sudeste 0 -- -- 44
2020-06-18 11:00:00 22.2 4 Noroeste 10 Sur 0 -- -- 53
2020-06-18 10:00:00 19.2 2 Nordeste 8 Este 0 -- -- 67
2020-06-18 09:00:00 16.1 3 Este 6 Sudeste 0 -- -- 80
2020-06-18 08:00:00 13.9 0 Calma 8 Nordeste 0 -- -- 89
2020-06-18 07:00:00 13 7 Nordeste 10 Nordeste 0 -- -- 86
2020-06-18 06:00:00 14.1 4 Sudeste 9 Este 0 -- -- 86
2020-06-18 05:00:00 14.7 5 Este 13 Este 0 -- -- 86
2020-06-18 04:00:00 15 4 Este 14 Este 0 -- -- 86
2020-06-18 03:00:00 15.5 7 Nordeste 19 Este 0 -- -- 86
2020-06-18 02:00:00 16.3 4 Nordeste 14 Nordeste 0 -- -- 83
2020-06-18 01:00:00 17 5 Este 22 Sudeste 0 -- -- 80
2020-06-18 00:00:00 17.5 7 Este 21 Este 0 -- -- 79
2020-06-17 23:00:00 18.2 7 Este 24 Este 0 -- -- 79
2020-06-17 22:00:00 18.9 8 Este 27 Este 0 -- -- 76
2020-06-17 21:00:00 20.6 11 Este 32 Sudeste 0 -- -- 69
2020-06-17 20:00:00 22.6 11 Este 27 Sudeste 0 -- -- 61
2020-06-17 19:00:00 26.3 6 Oeste 31 Noroeste 0 -- -- 28
2020-06-17 18:00:00 27.3 10 Oeste 29 Noroeste 0 -- -- 30
2020-06-17 17:00:00 26.7 15 Oeste 32 Noroeste 0 -- -- 31
2020-06-17 16:00:00 26.3 14 Noroeste 34 Oeste 0 -- -- 32
2020-06-17 15:00:00 27 14 Oeste 30 Oeste 0 -- -- 32
2020-06-17 14:00:00 25.5 15 Oeste 43 Oeste 0 -- -- 36
2020-06-17 13:00:00 24.7 13 Oeste 33 Noroeste 0 -- -- 39
2020-06-17 12:00:00 23.3 13 Oeste 25 Oeste 0 -- -- 43
2020-06-17 11:00:00 21.3 9 Sudoeste 21 Oeste 0 -- -- 46
2020-06-17 10:00:00 18.3 7 Oeste 17 Oeste 0 -- -- 59
2020-06-17 09:00:00 15.7 7 Oeste 13 Oeste 0 -- -- 73
2020-06-17 08:00:00 13.5 3 Oeste 6 Sudoeste 0 -- -- 84
2020-06-17 07:00:00 13.2 0 Calma 10 Oeste 0 -- -- 84
2020-06-17 06:00:00 13.7 5 Oeste 9 Oeste 0 -- -- 85
2020-06-17 05:00:00 15 2 Sudoeste 6 Sudoeste 0 -- -- 86
2020-06-17 04:00:00 16 0 Calma 6 Sudeste 0 -- -- 85
2020-06-17 03:00:00 16.3 2 Sudeste 9 Nordeste 0 -- -- 85
2020-06-17 02:00:00 16.4 0 Calma 10 Este 0 -- -- 84
2020-06-17 01:00:00 16.8 2 Este 18 Nordeste 0 -- -- 83
2020-06-17 00:00:00 17.4 9 Nordeste 17 Nordeste 0 -- -- 82
2020-06-16 23:00:00 18.1 7 Nordeste 20 Nordeste 0 -- -- 79
2020-06-16 22:00:00 20.4 9 Nordeste 19 Nordeste 0 -- -- 67
2020-06-16 21:00:00 24 10 Noroeste 20 Noroeste 0 -- -- 34
2020-06-16 20:00:00 24.9 10 Oeste 22 Oeste 0 -- -- 36
2020-06-16 19:00:00 25 15 Oeste 30 Noroeste 0 -- -- 35
2020-06-16 18:00:00 25.7 12 Oeste 27 Oeste 0 -- -- 32
2020-06-16 17:00:00 25.7 15 Noroeste 37 Noroeste 0 -- -- 34
2020-06-16 16:00:00 27.4 21 Noroeste 40 Noroeste 0 -- -- 31
2020-06-16 15:00:00 26.2 19 Noroeste 41 Noroeste 0 -- -- 33
2020-06-16 14:00:00 25.7 18 Oeste 36 Oeste 0 -- -- 33
2020-06-16 13:00:00 23.8 12 Oeste 26 Oeste 0 -- -- 40
2020-06-16 12:00:00 20.3 6 Sudoeste 18 Oeste 0 -- -- 49
2020-06-16 11:00:00 18.4 9 Oeste 19 Oeste 0 -- -- 50
2020-06-16 10:00:00 18.3 10 Oeste 21 Oeste 0 -- -- 48
2020-06-16 09:00:00 18.4 10 Oeste 18 Oeste 0 -- -- 46
2020-06-16 08:00:00 16.9 3 Oeste 10 Oeste 0 -- -- 48
2020-06-16 07:00:00 17 5 Oeste 8 Sudoeste 0 -- -- 47
2020-06-16 06:00:00 17.8 2 Sudoeste 9 Oeste 0 -- -- 44
2020-06-16 05:00:00 18.4 4 Oeste 10 Oeste 0 -- -- 42
2020-06-16 04:00:00 18.9 5 Oeste 10 Oeste 0 -- -- 40
2020-06-16 03:00:00 19 6 Oeste 13 Sudoeste 0 -- -- 40
2020-06-16 02:00:00 19.3 9 Oeste 13 Oeste 0 -- -- 39
2020-06-16 01:00:00 20.2 0 Calma 12 Oeste 0 -- -- 37
2020-06-16 00:00:00 21.2 0 Calma 9 Oeste 0 -- -- 35
2020-06-15 23:00:00 22.1 2 Oeste 8 Noroeste 0 -- -- 32
2020-06-15 22:00:00 23.6 4 Noroeste 16 Noroeste 0 -- -- 30
2020-06-15 21:00:00 26.1 13 Noroeste 26 Noroeste 0 -- -- 25
2020-06-15 20:00:00 27.5 12 Noroeste 28 Noroeste 0 -- -- 25
2020-06-15 19:00:00 28.2 12 Noroeste 28 Noroeste 0 -- -- 25
2020-06-15 18:00:00 28.6 14 Oeste 29 Noroeste 0 -- -- 25
2020-06-15 17:00:00 29.3 11 Noroeste 29 Oeste 0 -- -- 26
2020-06-15 16:00:00 28.6 11 Oeste 27 Oeste 0 -- -- 27
2020-06-15 15:00:00 27.8 12 Oeste 29 Oeste 0 -- -- 28
2020-06-15 14:00:00 26.8 8 Oeste 26 Noroeste 0 -- -- 30
2020-06-15 13:00:00 26.3 15 Noroeste 29 Noroeste 0 -- -- 30
2020-06-15 12:00:00 23.6 9 Oeste 19 Sudoeste 0 -- -- 38
2020-06-15 11:00:00 21.4 9 Oeste 15 Oeste 0 -- -- 43
2020-06-15 10:00:00 18.7 8 Oeste 15 Oeste 0 -- -- 50
2020-06-15 09:00:00 16.1 6 Sudoeste 13 Oeste 0 -- -- 58
2020-06-15 08:00:00 14.2 7 Oeste 12 Oeste 0 -- -- 59
2020-06-15 07:00:00 13.8 6 Oeste 11 Oeste 0 -- -- 55
2020-06-15 06:00:00 14.4 6 Sudoeste 12 Oeste 0 -- -- 51
2020-06-15 05:00:00 14.7 6 Oeste 11 Oeste 0 -- -- 52
2020-06-15 04:00:00 15.4 5 Oeste 12 Oeste 0 -- -- 51
2020-06-15 03:00:00 16 6 Sudoeste 11 Sudoeste 0 -- -- 50
2020-06-15 02:00:00 17 0 Calma 9 Oeste 0 -- -- 49
2020-06-15 01:00:00 18.2 7 Oeste 10 Oeste 0 -- -- 46
2020-06-15 00:00:00 19.4 3 Oeste 7 Oeste 0 -- -- 41
2020-06-14 23:00:00 20.7 3 Noroeste 12 Noroeste 0 -- -- 38
2020-06-14 22:00:00 22.4 6 Noroeste 17 Noroeste 0 -- -- 35
2020-06-14 21:00:00 24.4 9 Noroeste 24 Oeste 0 -- -- 31
2020-06-14 20:00:00 25.5 15 Noroeste 27 Noroeste 0 -- -- 27
2020-06-14 19:00:00 26.2 14 Noroeste 42 Noroeste 0 -- -- 27
2020-06-14 18:00:00 26.9 17 Noroeste 31 Oeste 0 -- -- 27
2020-06-14 17:00:00 27.4 16 Noroeste 31 Noroeste 0 -- -- 27
2020-06-14 16:00:00 26.8 12 Oeste 31 Oeste 0 -- -- 28
2020-06-14 15:00:00 26.1 11 Oeste 27 Oeste 0 -- -- 29
2020-06-14 14:00:00 25.2 10 Sudoeste 31 Sudoeste 0 -- -- 32
2020-06-14 13:00:00 24.2 8 Oeste 19 Noroeste 0 -- -- 34
2020-06-14 12:00:00 22.5 8 Oeste 17 Oeste 0 -- -- 39
2020-06-14 11:00:00 18.8 8 Oeste 13 Oeste 0 -- -- 48
2020-06-14 10:00:00 15.8 5 Oeste 13 Oeste 0 -- -- 56
2020-06-14 09:00:00 14 6 Oeste 11 Oeste 0 -- -- 62
2020-06-14 08:00:00 12.9 5 Oeste 10 Oeste 0 -- -- 64
2020-06-14 07:00:00 12.5 0 Calma 8 Oeste 0 -- -- 64
2020-06-14 06:00:00 12.6 2 Oeste 8 Oeste 0 -- -- 63
2020-06-14 05:00:00 12.9 4 Oeste 8 Oeste 0 -- -- 60
2020-06-14 04:00:00 13.6 0 Calma 9 Oeste 0 -- -- 57
2020-06-14 03:00:00 14.1 0 Calma 9 Sudoeste 0 -- -- 54
2020-06-14 02:00:00 14.8 4 Oeste 8 Sudoeste 0 -- -- 52
2020-06-14 01:00:00 15.5 0 Calma 10 Oeste 0 -- -- 51
2020-06-14 00:00:00 17 0 Calma 0 Calma 0 -- -- 46
2020-06-13 23:00:00 18.6 0 Calma 7 Nordeste 0 -- -- 41
2020-06-13 22:00:00 20.1 5 Norte 12 Oeste 0 -- -- 37
2020-06-13 21:00:00 22 8 Noroeste 25 Noroeste 0 -- -- 32
2020-06-13 20:00:00 22.9 15 Noroeste 29 Oeste 0 -- -- 30
2020-06-13 19:00:00 23.5 12 Oeste 30 Noroeste 0 -- -- 29
2020-06-13 18:00:00 23.9 14 Oeste 33 Oeste 0 -- -- 30
2020-06-13 17:00:00 24.3 14 Noroeste 28 Noroeste 0 -- -- 31
2020-06-13 16:00:00 23.5 13 Oeste 35 Oeste 0 -- -- 33
2020-06-13 15:00:00 22.5 14 Oeste 31 Oeste 0 -- -- 36
2020-06-13 14:00:00 22 15 Noroeste 35 Noroeste 0 -- -- 37
2020-06-13 13:00:00 20.2 20 Noroeste 36 Noroeste 0 -- -- 41
2020-06-13 12:00:00 19 16 Oeste 35 Oeste 0 -- -- 45
2020-06-13 11:00:00 17.7 15 Oeste 30 Oeste 0 -- -- 50
2020-06-13 10:00:00 15.7 14 Oeste 33 Oeste 0 -- -- 58
2020-06-13 09:00:00 13.5 13 Oeste 28 Oeste 0 -- -- 68
2020-06-13 08:00:00 11.5 10 Oeste 17 Noroeste 0 -- -- 74
2020-06-13 07:00:00 10.8 7 Oeste 13 Oeste 0 -- -- 73
2020-06-13 06:00:00 11.2 4 Sudoeste 11 Oeste 0 -- -- 69
2020-06-13 05:00:00 12 9 Oeste 18 Oeste 0 -- -- 66
2020-06-13 04:00:00 13.3 7 Oeste 18 Noroeste 0 -- -- 60
2020-06-13 03:00:00 14.3 10 Noroeste 24 Noroeste 0 -- -- 56
2020-06-13 02:00:00 15.1 10 Oeste 16 Sudoeste 0 -- -- 49
2020-06-13 01:00:00 15.1 9 Oeste 15 Sudoeste 0 -- -- 48
2020-06-13 00:00:00 16 5 Sudoeste 13 Oeste 0 -- -- 45
2020-06-12 23:00:00 16.4 5 Oeste 18 Noroeste 0 -- -- 43
2020-06-12 22:00:00 17.5 11 Noroeste 29 Noroeste 0 -- -- 39
2020-06-12 21:00:00 19.1 19 Noroeste 36 Noroeste 0 -- -- 37
2020-06-12 20:00:00 20.5 20 Noroeste 39 Oeste 0 -- -- 35
2020-06-12 19:00:00 22.2 19 Noroeste 37 Oeste 0 -- -- 32
2020-06-12 18:00:00 22.8 18 Oeste 39 Oeste 0 -- -- 30
2020-06-12 17:00:00 22.7 19 Oeste 42 Oeste 0 -- -- 31
2020-06-12 16:00:00 22.2 21 Oeste 46 Oeste 0 -- -- 32
2020-06-12 15:00:00 21.4 20 Oeste 40 Oeste 0 -- -- 32
2020-06-12 14:00:00 20.4 23 Oeste 44 Oeste 0 -- -- 34
2020-06-12 13:00:00 19.3 22 Oeste 44 Oeste 0 -- -- 39
2020-06-12 12:00:00 17.3 26 Oeste 45 Oeste 0 -- -- 46
2020-06-12 11:00:00 15.8 24 Oeste 44 Oeste 0 -- -- 50
2020-06-12 10:00:00 15.2 24 Oeste 40 Oeste 0 -- -- 54
2020-06-12 09:00:00 14.3 21 Oeste 43 Oeste 0 -- -- 59
2020-06-12 08:00:00 13.7 21 Oeste 41 Noroeste 0 -- -- 60
2020-06-12 07:00:00 14.4 17 Oeste 39 Oeste 0 -- -- 59
2020-06-12 06:00:00 15.2 19 Oeste 40 Oeste 0 -- -- 57
2020-06-12 05:00:00 15.7 18 Oeste 42 Oeste 0 -- -- 61
2020-06-12 04:00:00 16.2 21 Oeste 40 Noroeste 0 -- -- 60
2020-06-12 03:00:00 16.6 15 Oeste 32 Oeste 0 -- -- 60
2020-06-12 02:00:00 17.7 16 Oeste 42 Oeste 0 -- -- 55
2020-06-12 01:00:00 18.6 18 Oeste 43 Oeste 0 -- -- 49
2020-06-12 00:00:00 19.6 23 Oeste 44 Oeste 0 -- -- 44
2020-06-11 23:00:00 20.7 19 Oeste 40 Oeste 0 -- -- 45
2020-06-11 22:00:00 21.8 21 Oeste 43 Oeste 0 -- -- 43
2020-06-11 21:00:00 23.1 22 Oeste 42 Oeste 0 -- -- 39
2020-06-11 20:00:00 24.1 19 Oeste 36 Oeste 0 -- -- 37
2020-06-11 19:00:00 25.1 23 Oeste 37 Sudoeste 0 -- -- 31
2020-06-11 18:00:00 25.9 21 Oeste 39 Oeste 0 -- -- 30
2020-06-11 17:00:00 27.2 19 Oeste 44 Oeste 0 -- -- 29
2020-06-11 16:00:00 26.3 18 Oeste 39 Oeste 0 -- -- 31
2020-06-11 15:00:00 25.7 24 Oeste 45 Sudoeste 0 -- -- 31
2020-06-11 14:00:00 25 21 Oeste 43 Oeste 0 -- -- 30
2020-06-11 13:00:00 23.9 19 Oeste 39 Sudoeste 0 -- -- 37
2020-06-11 12:00:00 22.5 22 Oeste 42 Oeste 0 -- -- 41
2020-06-11 11:00:00 21.1 18 Oeste 30 Oeste 0 -- -- 45
2020-06-11 10:00:00 18.8 13 Oeste 26 Oeste 0 -- -- 56
2020-06-11 09:00:00 16 9 Oeste 18 Sudoeste 0 -- -- 66
2020-06-11 08:00:00 12.8 6 Oeste 9 Oeste 0 -- -- 81
2020-06-11 07:00:00 12.2 5 Oeste 7 Sudoeste 0 -- -- 88
2020-06-11 06:00:00 13.3 0 Calma 3 Sudoeste 0 -- -- 88
2020-06-11 05:00:00 14.2 0 Calma 8 Nordeste 0 -- -- 88
2020-06-11 04:00:00 14.6 4 Nordeste 13 Nordeste 0 -- -- 87
2020-06-11 03:00:00 15 7 Nordeste 13 Norte 0 -- -- 85
2020-06-11 02:00:00 15.9 6 Nordeste 12 Este 0 -- -- 79
2020-06-11 01:00:00 16.1 5 Este 20 Nordeste 0 -- -- 80
2020-06-11 00:00:00 16.8 11 Nordeste 22 Nordeste 0 -- -- 75